Ord, NE

9:05 AM CST on February 24, 2017 (GMT -0600)
Sharp | | Change Station
Active Advisory: Winter Storm Warning

Elev 2070 ft 41.62 °N, 98.95 °W | Updated 12 minutes ago

Haze
Haze
20 °F
Feels Like 3 °F
N
24
Wind Variable Wind from NNW
Gusts 34 mph

Today
High -- | Low -- °F
--% Chance of Precip.
Yesterday
High -- | Low -- °F
Precip. -- in
Pressure 30.01 in
Visibility 1.0 miles
Clouds Mostly Cloudy 1600 ft
Mostly Cloudy 2900 ft
Overcast 6000 ft
Windchill 3 °F
Dew Point 14 °F
Humidity 78%
Rainfall 0.01 in
Snow Depth Not available.
7:17 AM 6:20 PM
Waning Crescent, 5% visible
METAR KODX 241453Z AUTO 34021G30KT 1SM HZ BKN016 BKN029 OVC060 M07/M10 A2992 RMK AO2 PK WND 34032/1442 SLP160 T10671100 53025 PWINO FZRANO
Pressure 30.01 in
Visibility 1.0 miles
Clouds Mostly Cloudy 1600 ft
Mostly Cloudy 2900 ft
Overcast 6000 ft
Windchill 3 °F
Dew Point 14 °F
Humidity 78%
Rainfall 0.01 in
Snow Depth Not available.
7:17 AM 6:20 PM
Waning Crescent, 5% visible
METAR KODX 241453Z AUTO 34021G30KT 1SM HZ BKN016 BKN029 OVC060 M07/M10 A2992 RMK AO2 PK WND 34032/1442 SLP160 T10671100 53025 PWINO FZRANO

Get Your Daily Forecast Email!

Thanks for signing up!

Be on the lookout for a verification email in your inbox.

You'll start receiving the daily forecast at 8 AM.

×

10-Day Weather Forecast

Almanac

Astronomy

Feb. 24, 2017 Rise Set
Actual Time
Civil Twilight
Nautical Twilight
Astronomical Twilight
Moon
Length of Visible Light
Length of Day
Tomorrow will be .
, % of the Moon is Illuminated

Today's Extremes

State Highs State Lows

Community

WunderPhotos

Upload Photos

1,962,540 photos uploaded!

WunderBlog® & News

Nearby

Air Quality

  Air Quality AQ Index Pollutant
Not available.

Snow Depth

Station Depth Elevation

Earthquake Activity

City Distance Mag. Time & Date
Minimum magnitude displayed is 2.5.

Coastal Water Temperatures

Place Temperature

Stations

Nearby Weather Stations

Station Location Temp. Windchill Dew Point Humidity Wind Precip. Elev Updated Type
                   

Watches & Warnings

Winter Storm Warning
Issued: 8:12 AM CST Feb. 24, 2017 – National Weather Service

... Winter Storm Warning remains in effect until 6 PM CST this
evening...

* hazards... heavy snow and blowing snow.

* Snow accumulation... storm total accumulation of 5 to 8 inches.

* Timing... light to moderate snow will continue this morning and
taper off during the afternoon hours today.

* Winds... north at 15 to 25 mph with gusts to around 35 mph.

* Visibility... the combination of snow and gusty winds will
result in visibilities dropping down to near one half of a mile
at times.

* Impacts... travel will become dangerous as roads will be snow-
covered and slick. Falling and blowing snow will reduce
visibilities.

Precautionary/preparedness actions...

A Winter Storm Warning means significant amounts of snow is
expected or occurring. Strong winds are likely. This will make
travel very hazardous or impossible.